sensor_id;sensor_type;location;lat;lon;timestamp;P1;durP1;ratioP1;P2;durP2;ratioP2
64235;SDS011;50564;47.402;9.740;2022-09-12T00:02:35;1.60;;;1.50;;
64235;SDS011;50564;47.402;9.740;2022-09-12T00:07:35;4.68;;;1.67;;
64235;SDS011;50564;47.402;9.740;2022-09-12T00:12:36;2.95;;;1.50;;
64235;SDS011;50564;47.402;9.740;2022-09-12T00:17:37;4.13;;;1.40;;
64235;SDS011;50564;47.402;9.740;2022-09-12T00:22:38;3.42;;;1.13;;
64235;SDS011;50564;47.402;9.740;2022-09-12T00:27:38;2.47;;;1.05;;
64235;SDS011;50564;47.402;9.740;2022-09-12T00:32:39;1.17;;;1.00;;
64235;SDS011;50564;47.402;9.740;2022-09-12T00:37:39;2.67;;;1.25;;
64235;SDS011;50564;47.402;9.740;2022-09-12T00:42:40;3.17;;;1.25;;
64235;SDS011;50564;47.402;9.740;2022-09-12T00:47:41;2.15;;;1.50;;
64235;SDS011;50564;47.402;9.740;2022-09-12T01:02:57;2.65;;;1.90;;
64235;SDS011;50564;47.402;9.740;2022-09-12T01:08:00;3.90;;;1.95;;
64235;SDS011;50564;47.402;9.740;2022-09-12T01:13:05;2.80;;;1.67;;
64235;SDS011;50564;47.402;9.740;2022-09-12T01:18:13;3.10;;;1.23;;
64235;SDS011;50564;47.402;9.740;2022-09-12T01:28:45;3.67;;;1.00;;
64235;SDS011;50564;47.402;9.740;2022-09-12T01:39:27;2.03;;;0.95;;
64235;SDS011;50564;47.402;9.740;2022-09-12T01:55:55;2.20;;;1.02;;
64235;SDS011;50564;47.402;9.740;2022-09-12T02:01:30;1.88;;;1.17;;
64235;SDS011;50564;47.402;9.740;2022-09-12T02:06:41;1.42;;;1.17;;
64235;SDS011;50564;47.402;9.740;2022-09-12T02:11:44;1.38;;;1.05;;
64235;SDS011;50564;47.402;9.740;2022-09-12T02:16:47;4.50;;;1.10;;
64235;SDS011;50564;47.402;9.740;2022-09-12T02:21:52;2.22;;;1.00;;
64235;SDS011;50564;47.402;9.740;2022-09-12T02:26:56;3.13;;;0.98;;
64235;SDS011;50564;47.402;9.740;2022-09-12T02:32:01;2.10;;;1.20;;
64235;SDS011;50564;47.402;9.740;2022-09-12T02:42:35;3.45;;;1.70;;
64235;SDS011;50564;47.402;9.740;2022-09-12T02:52:59;4.10;;;3.30;;
64235;SDS011;50564;47.402;9.740;2022-09-12T02:58:04;6.47;;;5.80;;
64235;SDS011;50564;47.402;9.740;2022-09-12T03:19:23;5.30;;;4.00;;
64235;SDS011;50564;47.402;9.740;2022-09-12T03:24:34;6.22;;;4.07;;
64235;SDS011;50564;47.402;9.740;2022-09-12T03:29:38;5.78;;;2.22;;
64235;SDS011;50564;47.402;9.740;2022-09-12T03:34:39;3.25;;;1.30;;
64235;SDS011;50564;47.402;9.740;2022-09-12T03:39:40;4.03;;;2.72;;
64235;SDS011;50564;47.402;9.740;2022-09-12T03:44:40;2.70;;;1.52;;
64235;SDS011;50564;47.402;9.740;2022-09-12T03:49:41;2.75;;;1.42;;
64235;SDS011;50564;47.402;9.740;2022-09-12T03:54:42;1.55;;;0.98;;
64235;SDS011;50564;47.402;9.740;2022-09-12T03:59:42;2.42;;;1.20;;
64235;SDS011;50564;47.402;9.740;2022-09-12T04:04:43;3.05;;;1.88;;
64235;SDS011;50564;47.402;9.740;2022-09-12T04:09:45;5.70;;;2.10;;
64235;SDS011;50564;47.402;9.740;2022-09-12T04:14:46;3.85;;;1.92;;
64235;SDS011;50564;47.402;9.740;2022-09-12T04:19:46;3.30;;;1.83;;
64235;SDS011;50564;47.402;9.740;2022-09-12T04:24:47;5.72;;;2.00;;
64235;SDS011;50564;47.402;9.740;2022-09-12T04:29:48;3.33;;;2.10;;
64235;SDS011;50564;47.402;9.740;2022-09-12T04:34:48;4.55;;;2.03;;
64235;SDS011;50564;47.402;9.740;2022-09-12T04:39:49;7.10;;;3.33;;
64235;SDS011;50564;47.402;9.740;2022-09-12T04:44:50;3.97;;;1.98;;
64235;SDS011;50564;47.402;9.740;2022-09-12T04:49:51;2.03;;;1.40;;
64235;SDS011;50564;47.402;9.740;2022-09-12T04:54:52;4.70;;;1.33;;
64235;SDS011;50564;47.402;9.740;2022-09-12T04:59:52;5.07;;;1.48;;
64235;SDS011;50564;47.402;9.740;2022-09-12T05:04:53;2.08;;;1.25;;
64235;SDS011;50564;47.402;9.740;2022-09-12T05:09:53;4.13;;;1.70;;
64235;SDS011;50564;47.402;9.740;2022-09-12T05:14:54;4.80;;;2.38;;
64235;SDS011;50564;47.402;9.740;2022-09-12T05:19:55;4.38;;;2.20;;
64235;SDS011;50564;47.402;9.740;2022-09-12T05:24:55;3.88;;;2.00;;
64235;SDS011;50564;47.402;9.740;2022-09-12T05:29:56;5.53;;;1.60;;
64235;SDS011;50564;47.402;9.740;2022-09-12T05:34:56;5.82;;;2.15;;
64235;SDS011;50564;47.402;9.740;2022-09-12T05:39:57;3.63;;;1.98;;
64235;SDS011;50564;47.402;9.740;2022-09-12T05:44:58;5.03;;;2.30;;
64235;SDS011;50564;47.402;9.740;2022-09-12T05:49:59;2.70;;;1.67;;
64235;SDS011;50564;47.402;9.740;2022-09-12T05:55:00;2.78;;;2.38;;
64235;SDS011;50564;47.402;9.740;2022-09-12T06:00:00;3.58;;;2.88;;
64235;SDS011;50564;47.402;9.740;2022-09-12T06:05:12;10.07;;;7.78;;
64235;SDS011;50564;47.402;9.740;2022-09-12T06:10:12;10.52;;;4.45;;
64235;SDS011;50564;47.402;9.740;2022-09-12T06:15:14;8.25;;;3.65;;
64235;SDS011;50564;47.402;9.740;2022-09-12T06:20:15;7.75;;;3.25;;
64235;SDS011;50564;47.402;9.740;2022-09-12T06:25:18;5.00;;;2.50;;
64235;SDS011;50564;47.402;9.740;2022-09-12T06:30:19;4.22;;;2.00;;
64235;SDS011;50564;47.402;9.740;2022-09-12T06:35:21;5.10;;;1.33;;
64235;SDS011;50564;47.402;9.740;2022-09-12T06:40:22;1.63;;;1.00;;
64235;SDS011;50564;47.402;9.740;2022-09-12T06:45:23;3.17;;;1.38;;
64235;SDS011;50564;47.402;9.740;2022-09-12T06:50:27;2.17;;;1.00;;
64235;SDS011;50564;47.402;9.740;2022-09-12T06:55:27;4.10;;;1.30;;
64235;SDS011;50564;47.402;9.740;2022-09-12T07:00:29;10.88;;;4.22;;
64235;SDS011;50564;47.402;9.740;2022-09-12T07:05:32;12.15;;;4.35;;
64235;SDS011;50564;47.402;9.740;2022-09-12T07:10:33;7.32;;;2.47;;
64235;SDS011;50564;47.402;9.740;2022-09-12T07:15:34;6.05;;;2.40;;
64235;SDS011;50564;47.402;9.740;2022-09-12T07:20:35;6.55;;;2.20;;
64235;SDS011;50564;47.402;9.740;2022-09-12T07:25:38;4.50;;;2.28;;
64235;SDS011;50564;47.402;9.740;2022-09-12T07:30:39;3.28;;;2.13;;
64235;SDS011;50564;47.402;9.740;2022-09-12T07:35:39;5.60;;;2.30;;
64235;SDS011;50564;47.402;9.740;2022-09-12T07:40:40;4.18;;;2.28;;
64235;SDS011;50564;47.402;9.740;2022-09-12T07:45:41;6.22;;;2.05;;
64235;SDS011;50564;47.402;9.740;2022-09-12T07:50:42;3.60;;;1.75;;
64235;SDS011;50564;47.402;9.740;2022-09-12T07:55:43;5.80;;;1.83;;
64235;SDS011;50564;47.402;9.740;2022-09-12T08:00:44;5.80;;;2.20;;
64235;SDS011;50564;47.402;9.740;2022-09-12T08:05:45;4.55;;;2.30;;
64235;SDS011;50564;47.402;9.740;2022-09-12T08:10:45;6.90;;;2.25;;
64235;SDS011;50564;47.402;9.740;2022-09-12T08:15:46;6.57;;;2.00;;
64235;SDS011;50564;47.402;9.740;2022-09-12T08:20:47;4.68;;;1.90;;
64235;SDS011;50564;47.402;9.740;2022-09-12T08:25:47;6.60;;;2.00;;
64235;SDS011;50564;47.402;9.740;2022-09-12T08:30:49;1.95;;;1.20;;
64235;SDS011;50564;47.402;9.740;2022-09-12T08:35:49;3.65;;;1.52;;
64235;SDS011;50564;47.402;9.740;2022-09-12T08:40:56;6.18;;;2.33;;
64235;SDS011;50564;47.402;9.740;2022-09-12T08:46:07;3.35;;;1.65;;
64235;SDS011;50564;47.402;9.740;2022-09-12T08:51:13;2.30;;;1.27;;
64235;SDS011;50564;47.402;9.740;2022-09-12T08:56:15;3.08;;;1.38;;
64235;SDS011;50564;47.402;9.740;2022-09-12T09:12:11;3.80;;;1.20;;
64235;SDS011;50564;47.402;9.740;2022-09-12T09:17:36;3.42;;;1.33;;
64235;SDS011;50564;47.402;9.740;2022-09-12T09:22:47;5.07;;;1.40;;
64235;SDS011;50564;47.402;9.740;2022-09-12T09:28:01;3.15;;;1.33;;
64235;SDS011;50564;47.402;9.740;2022-09-12T09:33:05;5.28;;;1.63;;
64235;SDS011;50564;47.402;9.740;2022-09-12T09:38:14;4.88;;;1.38;;
64235;SDS011;50564;47.402;9.740;2022-09-12T09:43:26;8.73;;;1.73;;
64235;SDS011;50564;47.402;9.740;2022-09-12T09:48:31;7.95;;;1.95;;
64235;SDS011;50564;47.402;9.740;2022-09-12T09:58:41;2.03;;;1.00;;
64235;SDS011;50564;47.402;9.740;2022-09-12T10:03:49;2.08;;;0.90;;
64235;SDS011;50564;47.402;9.740;2022-09-12T10:09:02;4.85;;;0.90;;
64235;SDS011;50564;47.402;9.740;2022-09-12T10:14:31;2.05;;;0.93;;
64235;SDS011;50564;47.402;9.740;2022-09-12T10:19:39;2.63;;;1.00;;
64235;SDS011;50564;47.402;9.740;2022-09-12T10:24:39;2.03;;;0.90;;
64235;SDS011;50564;47.402;9.740;2022-09-12T10:35:15;1.67;;;0.90;;
64235;SDS011;50564;47.402;9.740;2022-09-12T10:40:28;2.88;;;0.88;;
64235;SDS011;50564;47.402;9.740;2022-09-12T10:45:33;2.30;;;0.88;;
64235;SDS011;50564;47.402;9.740;2022-09-12T10:50:38;2.78;;;1.00;;
64235;SDS011;50564;47.402;9.740;2022-09-12T10:55:41;2.67;;;0.70;;
64235;SDS011;50564;47.402;9.740;2022-09-12T11:00:52;1.27;;;0.68;;
64235;SDS011;50564;47.402;9.740;2022-09-12T11:05:58;4.53;;;0.90;;
64235;SDS011;50564;47.402;9.740;2022-09-12T11:11:03;2.90;;;0.80;;
64235;SDS011;50564;47.402;9.740;2022-09-12T11:16:17;1.85;;;0.75;;
64235;SDS011;50564;47.402;9.740;2022-09-12T11:27:08;0.95;;;0.80;;
64235;SDS011;50564;47.402;9.740;2022-09-12T11:42:32;2.45;;;1.38;;
64235;SDS011;50564;47.402;9.740;2022-09-12T11:47:34;1.75;;;1.30;;
64235;SDS011;50564;47.402;9.740;2022-09-12T11:52:36;2.10;;;1.13;;
64235;SDS011;50564;47.402;9.740;2022-09-12T12:03:02;4.72;;;1.70;;
64235;SDS011;50564;47.402;9.740;2022-09-12T12:08:07;2.50;;;1.50;;
64235;SDS011;50564;47.402;9.740;2022-09-12T12:13:18;3.83;;;1.85;;
64235;SDS011;50564;47.402;9.740;2022-09-12T12:23:30;7.47;;;2.33;;
64235;SDS011;50564;47.402;9.740;2022-09-12T12:38:44;3.22;;;1.30;;
64235;SDS011;50564;47.402;9.740;2022-09-12T12:43:48;2.80;;;1.30;;
64235;SDS011;50564;47.402;9.740;2022-09-12T12:53:50;3.08;;;1.10;;
64235;SDS011;50564;47.402;9.740;2022-09-12T12:59:02;2.88;;;1.00;;
64235;SDS011;50564;47.402;9.740;2022-09-12T13:04:13;2.75;;;1.20;;
64235;SDS011;50564;47.402;9.740;2022-09-12T13:20:01;3.60;;;1.30;;
64235;SDS011;50564;47.402;9.740;2022-09-12T13:25:27;4.43;;;1.40;;
64235;SDS011;50564;47.402;9.740;2022-09-12T13:30:33;1.67;;;1.25;;
64235;SDS011;50564;47.402;9.740;2022-09-12T13:35:41;2.78;;;1.40;;
64235;SDS011;50564;47.402;9.740;2022-09-12T13:46:36;1.55;;;1.20;;
64235;SDS011;50564;47.402;9.740;2022-09-12T13:51:37;2.33;;;1.30;;
64235;SDS011;50564;47.402;9.740;2022-09-12T13:56:45;1.55;;;1.13;;
64235;SDS011;50564;47.402;9.740;2022-09-12T14:01:47;2.40;;;1.10;;
64235;SDS011;50564;47.402;9.740;2022-09-12T14:06:49;5.20;;;1.50;;
64235;SDS011;50564;47.402;9.740;2022-09-12T14:11:51;3.53;;;1.10;;
64235;SDS011;50564;47.402;9.740;2022-09-12T14:16:52;2.35;;;1.10;;
64235;SDS011;50564;47.402;9.740;2022-09-12T14:21:54;2.53;;;1.17;;
64235;SDS011;50564;47.402;9.740;2022-09-12T14:26:56;2.72;;;1.08;;
64235;SDS011;50564;47.402;9.740;2022-09-12T14:32:00;1.75;;;0.90;;
64235;SDS011;50564;47.402;9.740;2022-09-12T14:37:04;2.20;;;1.27;;
64235;SDS011;50564;47.402;9.740;2022-09-12T14:42:27;4.55;;;1.10;;
64235;SDS011;50564;47.402;9.740;2022-09-12T14:47:29;1.05;;;0.93;;
64235;SDS011;50564;47.402;9.740;2022-09-12T14:52:38;2.47;;;1.30;;
64235;SDS011;50564;47.402;9.740;2022-09-12T14:57:39;3.28;;;1.45;;
64235;SDS011;50564;47.402;9.740;2022-09-12T15:02:40;1.52;;;1.13;;
64235;SDS011;50564;47.402;9.740;2022-09-12T15:13:02;2.72;;;1.02;;
64235;SDS011;50564;47.402;9.740;2022-09-12T15:18:10;1.75;;;1.15;;
64235;SDS011;50564;47.402;9.740;2022-09-12T15:23:16;2.00;;;0.93;;
64235;SDS011;50564;47.402;9.740;2022-09-12T15:28:22;1.38;;;0.90;;
64235;SDS011;50564;47.402;9.740;2022-09-12T15:33:23;1.35;;;0.93;;
64235;SDS011;50564;47.402;9.740;2022-09-12T15:38:24;3.97;;;1.10;;
64235;SDS011;50564;47.402;9.740;2022-09-12T15:43:25;2.17;;;0.80;;
64235;SDS011;50564;47.402;9.740;2022-09-12T15:48:25;1.63;;;0.77;;
64235;SDS011;50564;47.402;9.740;2022-09-12T15:53:26;1.63;;;0.80;;
64235;SDS011;50564;47.402;9.740;2022-09-12T15:58:27;1.20;;;0.80;;
64235;SDS011;50564;47.402;9.740;2022-09-12T16:03:28;1.30;;;0.88;;
64235;SDS011;50564;47.402;9.740;2022-09-12T16:08:29;3.63;;;1.08;;
64235;SDS011;50564;47.402;9.740;2022-09-12T16:13:30;1.83;;;0.70;;
64235;SDS011;50564;47.402;9.740;2022-09-12T16:18:31;1.95;;;0.77;;
64235;SDS011;50564;47.402;9.740;2022-09-12T16:23:32;3.03;;;0.98;;
64235;SDS011;50564;47.402;9.740;2022-09-12T16:28:32;1.48;;;1.00;;
64235;SDS011;50564;47.402;9.740;2022-09-12T16:33:33;2.10;;;0.80;;
64235;SDS011;50564;47.402;9.740;2022-09-12T16:38:42;2.45;;;1.25;;
64235;SDS011;50564;47.402;9.740;2022-09-12T16:43:50;2.20;;;1.30;;
64235;SDS011;50564;47.402;9.740;2022-09-12T16:48:52;1.83;;;1.10;;
64235;SDS011;50564;47.402;9.740;2022-09-12T16:53:54;2.75;;;1.33;;
64235;SDS011;50564;47.402;9.740;2022-09-12T16:58:54;1.40;;;0.98;;
64235;SDS011;50564;47.402;9.740;2022-09-12T17:03:56;3.20;;;1.40;;
64235;SDS011;50564;47.402;9.740;2022-09-12T17:08:58;2.33;;;1.15;;
64235;SDS011;50564;47.402;9.740;2022-09-12T17:14:06;2.80;;;1.40;;
64235;SDS011;50564;47.402;9.740;2022-09-12T17:19:07;1.67;;;1.20;;
64235;SDS011;50564;47.402;9.740;2022-09-12T17:24:13;3.78;;;1.35;;
64235;SDS011;50564;47.402;9.740;2022-09-12T17:29:15;3.03;;;1.30;;
64235;SDS011;50564;47.402;9.740;2022-09-12T17:34:16;3.92;;;1.15;;
64235;SDS011;50564;47.402;9.740;2022-09-12T17:39:17;3.35;;;1.13;;
64235;SDS011;50564;47.402;9.740;2022-09-12T17:44:17;4.13;;;1.08;;
64235;SDS011;50564;47.402;9.740;2022-09-12T17:49:19;3.33;;;1.23;;
64235;SDS011;50564;47.402;9.740;2022-09-12T17:54:21;4.22;;;1.70;;
64235;SDS011;50564;47.402;9.740;2022-09-12T17:59:21;5.47;;;1.10;;
64235;SDS011;50564;47.402;9.740;2022-09-12T18:04:24;4.57;;;1.15;;
64235;SDS011;50564;47.402;9.740;2022-09-12T18:09:26;3.25;;;1.23;;
64235;SDS011;50564;47.402;9.740;2022-09-12T18:14:27;2.72;;;1.00;;
64235;SDS011;50564;47.402;9.740;2022-09-12T18:19:27;2.35;;;1.10;;
64235;SDS011;50564;47.402;9.740;2022-09-12T18:24:28;2.45;;;0.70;;
64235;SDS011;50564;47.402;9.740;2022-09-12T18:29:29;3.20;;;1.00;;
64235;SDS011;50564;47.402;9.740;2022-09-12T18:34:30;5.03;;;0.95;;
64235;SDS011;50564;47.402;9.740;2022-09-12T18:39:31;2.75;;;1.17;;
64235;SDS011;50564;47.402;9.740;2022-09-12T18:44:31;2.38;;;1.20;;
64235;SDS011;50564;47.402;9.740;2022-09-12T18:49:32;1.95;;;1.13;;
64235;SDS011;50564;47.402;9.740;2022-09-12T18:54:33;3.63;;;1.05;;
64235;SDS011;50564;47.402;9.740;2022-09-12T18:59:34;4.25;;;1.10;;
64235;SDS011;50564;47.402;9.740;2022-09-12T19:04:35;1.10;;;0.95;;
64235;SDS011;50564;47.402;9.740;2022-09-12T19:09:36;1.80;;;0.90;;
64235;SDS011;50564;47.402;9.740;2022-09-12T19:14:37;3.45;;;1.10;;
64235;SDS011;50564;47.402;9.740;2022-09-12T19:19:37;2.17;;;0.82;;
64235;SDS011;50564;47.402;9.740;2022-09-12T19:24:38;3.13;;;1.10;;
64235;SDS011;50564;47.402;9.740;2022-09-12T19:29:39;1.70;;;1.08;;
64235;SDS011;50564;47.402;9.740;2022-09-12T19:34:39;4.40;;;2.10;;
64235;SDS011;50564;47.402;9.740;2022-09-12T19:39:40;3.40;;;2.20;;
64235;SDS011;50564;47.402;9.740;2022-09-12T19:44:43;3.25;;;1.30;;
64235;SDS011;50564;47.402;9.740;2022-09-12T19:49:44;3.03;;;1.23;;
64235;SDS011;50564;47.402;9.740;2022-09-12T19:54:46;3.50;;;1.10;;
64235;SDS011;50564;47.402;9.740;2022-09-12T19:59:47;2.17;;;1.02;;
64235;SDS011;50564;47.402;9.740;2022-09-12T20:04:48;3.45;;;1.02;;
64235;SDS011;50564;47.402;9.740;2022-09-12T20:09:52;3.50;;;1.60;;
64235;SDS011;50564;47.402;9.740;2022-09-12T20:14:54;2.50;;;1.13;;
64235;SDS011;50564;47.402;9.740;2022-09-12T20:19:54;2.45;;;1.10;;
64235;SDS011;50564;47.402;9.740;2022-09-12T20:24:55;2.28;;;1.10;;
64235;SDS011;50564;47.402;9.740;2022-09-12T20:29:56;4.47;;;1.13;;
64235;SDS011;50564;47.402;9.740;2022-09-12T20:34:57;2.42;;;1.10;;
64235;SDS011;50564;47.402;9.740;2022-09-12T20:39:58;2.72;;;1.15;;
64235;SDS011;50564;47.402;9.740;2022-09-12T20:44:58;4.78;;;1.60;;
64235;SDS011;50564;47.402;9.740;2022-09-12T20:49:59;1.95;;;1.10;;
64235;SDS011;50564;47.402;9.740;2022-09-12T20:54:59;3.15;;;1.73;;
64235;SDS011;50564;47.402;9.740;2022-09-12T21:00:00;1.83;;;1.30;;
64235;SDS011;50564;47.402;9.740;2022-09-12T21:05:01;2.33;;;1.52;;
64235;SDS011;50564;47.402;9.740;2022-09-12T21:10:02;2.72;;;1.40;;
64235;SDS011;50564;47.402;9.740;2022-09-12T21:15:03;2.03;;;1.27;;
64235;SDS011;50564;47.402;9.740;2022-09-12T21:20:04;3.08;;;1.60;;
64235;SDS011;50564;47.402;9.740;2022-09-12T21:25:05;2.00;;;1.10;;
64235;SDS011;50564;47.402;9.740;2022-09-12T21:30:06;3.60;;;1.30;;
64235;SDS011;50564;47.402;9.740;2022-09-12T21:35:07;1.73;;;1.00;;
64235;SDS011;50564;47.402;9.740;2022-09-12T21:40:08;1.30;;;1.00;;
64235;SDS011;50564;47.402;9.740;2022-09-12T21:45:09;2.60;;;1.50;;
64235;SDS011;50564;47.402;9.740;2022-09-12T21:50:10;4.13;;;2.47;;
64235;SDS011;50564;47.402;9.740;2022-09-12T21:55:11;3.53;;;1.55;;
64235;SDS011;50564;47.402;9.740;2022-09-12T22:00:13;3.13;;;1.17;;
64235;SDS011;50564;47.402;9.740;2022-09-12T22:05:15;1.83;;;1.08;;
64235;SDS011;50564;47.402;9.740;2022-09-12T22:10:16;5.57;;;1.48;;
64235;SDS011;50564;47.402;9.740;2022-09-12T22:15:17;1.40;;;1.10;;
64235;SDS011;50564;47.402;9.740;2022-09-12T22:20:18;2.25;;;1.00;;
64235;SDS011;50564;47.402;9.740;2022-09-12T22:25:19;0.80;;;0.70;;
64235;SDS011;50564;47.402;9.740;2022-09-12T22:30:23;1.80;;;1.05;;
64235;SDS011;50564;47.402;9.740;2022-09-12T22:35:26;1.52;;;1.02;;
64235;SDS011;50564;47.402;9.740;2022-09-12T22:40:26;3.10;;;1.05;;
64235;SDS011;50564;47.402;9.740;2022-09-12T22:45:27;3.40;;;1.20;;
64235;SDS011;50564;47.402;9.740;2022-09-12T22:50:28;1.75;;;1.02;;
64235;SDS011;50564;47.402;9.740;2022-09-12T22:55:28;1.25;;;0.70;;
64235;SDS011;50564;47.402;9.740;2022-09-12T23:00:29;1.20;;;0.88;;
64235;SDS011;50564;47.402;9.740;2022-09-12T23:05:29;3.05;;;1.30;;
64235;SDS011;50564;47.402;9.740;2022-09-12T23:10:33;3.30;;;1.33;;
64235;SDS011;50564;47.402;9.740;2022-09-12T23:15:34;4.40;;;1.35;;
64235;SDS011;50564;47.402;9.740;2022-09-12T23:20:35;7.35;;;1.23;;
64235;SDS011;50564;47.402;9.740;2022-09-12T23:25:36;2.08;;;1.08;;
64235;SDS011;50564;47.402;9.740;2022-09-12T23:30:36;2.53;;;1.10;;
64235;SDS011;50564;47.402;9.740;2022-09-12T23:35:37;0.90;;;0.90;;
64235;SDS011;50564;47.402;9.740;2022-09-12T23:40:37;1.85;;;1.00;;
64235;SDS011;50564;47.402;9.740;2022-09-12T23:45:38;3.38;;;1.98;;
64235;SDS011;50564;47.402;9.740;2022-09-12T23:50:39;3.92;;;1.10;;
64235;SDS011;50564;47.402;9.740;2022-09-12T23:55:42;1.83;;;0.80;;
